St Leonards-on-Sea, United Kingdom
Current Conditions -  °F | °C
As of 10:20 AM on Thursday 23 Oct 2014 (Local Time) from EGMD Reporting Station
Broken Clouds Broken Clouds  
Wind Chill: 15°   Ceiling: 3900
Heat Index: 15°   Visibility: 6mi
Dew Point: 11°   Wind: 13mph
Humidity: 77%   Direction: 230°SW
Pressure: 30.18"   Gusts: NA
Location:  50.85°N, 0.56°E
Report Text: EGMD 230920Z 23011KT 9999 BKN039 15/11 Q1022
Loading
Personal Weather Stations






























Interactive Weather Map
Tropical Storm Tracking
New forecast layout! Learn more

10-Day Weather Forecast

Advertisements
Track Severe Weather on mobile